createdAt,value
2023-05-12T00:00:24.759Z,7.57
2023-05-12T00:02:26.600Z,7.35
2023-05-12T00:04:28.201Z,6.45
2023-05-12T00:06:29.804Z,6.88
2023-05-12T00:08:31.474Z,7.38
2023-05-12T00:10:33.107Z,6.32
2023-05-12T00:12:34.635Z,5.88
2023-05-12T00:14:36.918Z,5.40
2023-05-12T00:16:38.504Z,6.20
2023-05-12T00:18:40.105Z,5.80
2023-05-12T00:20:41.778Z,5.10
2023-05-12T00:22:43.471Z,4.50
2023-05-12T00:24:45.051Z,4.30
2023-05-12T00:26:46.598Z,4.15
2023-05-12T00:28:48.779Z,3.90
2023-05-12T00:30:50.465Z,4.07
2023-05-12T00:32:52.094Z,3.38
2023-05-12T00:34:54.585Z,4.32
2023-05-12T00:36:56.121Z,3.38
2023-05-12T00:38:58.482Z,3.50
2023-05-12T00:41:01.275Z,3.22
2023-05-12T00:43:02.776Z,3.40
2023-05-12T00:45:05.816Z,3.10
2023-05-12T00:47:07.881Z,3.28
2023-05-12T00:49:09.452Z,3.33
2023-05-12T00:51:12.553Z,3.13
2023-05-12T00:53:14.207Z,3.42
2023-05-12T00:55:16.349Z,3.40
2023-05-12T00:57:19.107Z,3.45
2023-05-12T00:59:20.688Z,3.22
2023-05-12T01:01:22.379Z,3.22
2023-05-12T01:03:24.185Z,3.53
2023-05-12T01:05:36.132Z,3.08
2023-05-12T01:07:39.176Z,3.08
2023-05-12T01:09:40.780Z,3.00
2023-05-12T01:11:42.322Z,3.10
2023-05-12T01:13:43.949Z,2.85
2023-05-12T01:15:47.875Z,3.13
2023-05-12T01:18:02.016Z,2.85
2023-05-12T01:20:06.140Z,2.92
2023-05-12T01:22:09.312Z,2.92
2023-05-12T01:24:12.171Z,3.38
2023-05-12T01:26:13.824Z,3.80
2023-05-12T01:28:16.658Z,3.40
2023-05-12T01:30:20.119Z,3.65
2023-05-12T01:32:22.340Z,4.55
2023-05-12T01:34:23.992Z,4.30
2023-05-12T01:36:25.525Z,4.28
2023-05-12T01:38:27.520Z,4.40
2023-05-12T01:40:29.124Z,4.40
2023-05-12T01:42:30.612Z,4.15
2023-05-12T01:44:32.229Z,3.90
2023-05-12T01:46:33.801Z,4.30
2023-05-12T01:48:35.443Z,3.88
2023-05-12T01:50:36.969Z,3.97
2023-05-12T01:52:38.456Z,4.10
2023-05-12T01:54:40.162Z,4.53
2023-05-12T01:56:42.085Z,4.10
2023-05-12T01:58:43.619Z,4.53
2023-05-12T02:00:45.204Z,4.50
2023-05-12T02:02:46.846Z,5.15
2023-05-12T02:04:48.444Z,4.95
2023-05-12T02:06:49.975Z,5.05
2023-05-12T02:08:51.788Z,5.03
2023-05-12T02:11:08.352Z,4.50
2023-05-12T02:13:09.858Z,5.43
2023-05-12T02:15:11.587Z,5.22
2023-05-12T02:17:13.250Z,4.95
2023-05-12T02:19:14.748Z,4.85
2023-05-12T02:21:16.389Z,4.88
2023-05-12T02:23:17.968Z,4.63
2023-05-12T02:25:19.507Z,4.97
2023-05-12T02:27:21.160Z,4.93
2023-05-12T02:29:23.107Z,4.22
2023-05-12T02:31:24.679Z,3.80
2023-05-12T02:33:26.854Z,4.38
2023-05-12T02:35:28.479Z,4.47
2023-05-12T02:37:29.978Z,4.45
2023-05-12T02:39:31.578Z,3.90
2023-05-12T02:41:33.148Z,4.05
2023-05-12T02:43:34.655Z,3.60
2023-05-12T02:45:36.416Z,3.63
2023-05-12T02:47:38.011Z,3.50
2023-05-12T02:49:39.618Z,3.83
2023-05-12T02:51:41.114Z,3.33
2023-05-12T02:53:42.641Z,3.15
2023-05-12T02:55:44.220Z,3.05
2023-05-12T02:57:45.865Z,3.03
2023-05-12T02:59:47.453Z,3.40
2023-05-12T03:01:49.047Z,2.60
2023-05-12T03:03:50.738Z,2.53
2023-05-12T03:05:53.445Z,2.20
2023-05-12T03:07:55.000Z,2.47
2023-05-12T03:09:57.748Z,2.22
2023-05-12T03:11:59.277Z,2.10
2023-05-12T03:14:00.829Z,2.15
2023-05-12T03:16:02.433Z,2.17
2023-05-12T03:18:04.180Z,2.25
2023-05-12T03:20:06.863Z,2.20
2023-05-12T03:22:08.698Z,2.17
2023-05-12T03:24:10.462Z,1.90
2023-05-12T03:26:11.991Z,2.45
2023-05-12T03:28:13.513Z,2.30
2023-05-12T03:30:15.137Z,2.60
2023-05-12T03:32:16.799Z,2.67
2023-05-12T03:34:18.928Z,2.85
2023-05-12T03:36:20.495Z,2.95
2023-05-12T03:38:22.329Z,2.70
2023-05-12T03:40:23.920Z,3.10
2023-05-12T03:42:25.500Z,3.58
2023-05-12T03:44:27.053Z,2.90
2023-05-12T03:46:29.008Z,3.05
2023-05-12T03:48:30.615Z,3.50
2023-05-12T03:50:32.175Z,3.28
2023-05-12T03:52:33.839Z,3.33
2023-05-12T03:54:37.217Z,3.63
2023-05-12T03:56:39.580Z,4.18
2023-05-12T03:58:41.125Z,3.58
2023-05-12T04:00:44.154Z,3.83
2023-05-12T04:02:46.506Z,3.67
2023-05-12T04:04:48.217Z,3.47
2023-05-12T04:06:49.817Z,3.70
2023-05-12T04:08:51.357Z,3.30
2023-05-12T04:10:56.164Z,3.40
2023-05-12T04:12:57.749Z,4.00
2023-05-12T04:14:59.718Z,3.72
2023-05-12T04:17:01.390Z,3.72
2023-05-12T04:19:03.412Z,4.22
2023-05-12T04:21:05.538Z,3.47
2023-05-12T04:23:07.436Z,3.55
2023-05-12T04:25:09.992Z,3.10
2023-05-12T04:27:11.761Z,3.58
2023-05-12T04:29:13.422Z,3.63
2023-05-12T04:31:14.984Z,3.67
2023-05-12T04:33:16.554Z,3.58
2023-05-12T04:35:18.157Z,3.50
2023-05-12T04:37:19.721Z,3.35
2023-05-12T04:39:21.380Z,3.80
2023-05-12T04:41:22.911Z,3.10
2023-05-12T04:45:28.879Z,3.80
2023-05-12T04:47:30.504Z,4.20
2023-05-12T04:49:32.079Z,3.47
2023-05-12T04:51:33.654Z,3.20
2023-05-12T04:53:36.315Z,3.60
2023-05-12T04:55:37.888Z,3.40
2023-05-12T04:57:41.446Z,3.67
2023-05-12T04:59:43.236Z,3.67
2023-05-12T05:01:44.799Z,4.00
2023-05-12T05:03:46.469Z,4.10
2023-05-12T05:05:49.081Z,4.07
2023-05-12T05:07:50.701Z,3.90
2023-05-12T05:09:52.294Z,4.10
2023-05-12T05:11:53.947Z,3.88
2023-05-12T05:13:55.628Z,4.25
2023-05-12T05:15:57.225Z,3.60
2023-05-12T05:18:01.744Z,3.67
2023-05-12T05:20:09.499Z,3.38
2023-05-12T05:22:13.359Z,3.78
2023-05-12T05:24:15.045Z,3.17
2023-05-12T05:26:16.607Z,3.90
2023-05-12T05:28:18.144Z,3.33
2023-05-12T05:30:19.780Z,3.72
2023-05-12T05:32:21.853Z,2.72
2023-05-12T05:34:23.514Z,3.08
2023-05-12T05:36:29.936Z,3.13
2023-05-12T05:38:32.726Z,3.33
2023-05-12T05:40:48.819Z,3.42
2023-05-12T05:42:54.276Z,3.13
2023-05-12T05:44:56.386Z,3.17
2023-05-12T05:46:58.768Z,3.35
2023-05-12T05:49:00.374Z,3.33
2023-05-12T05:51:02.319Z,3.22
2023-05-12T05:53:03.858Z,4.30
2023-05-12T05:55:05.680Z,5.45
2023-05-12T05:57:07.321Z,6.55
2023-05-12T05:59:09.882Z,3.08
2023-05-12T06:01:11.789Z,3.67
2023-05-12T06:03:13.530Z,2.92
2023-05-12T06:05:15.193Z,4.18
2023-05-12T06:07:16.749Z,2.78
2023-05-12T06:09:18.315Z,2.97
2023-05-12T06:11:19.851Z,2.50
2023-05-12T06:13:22.587Z,3.05
2023-05-12T06:15:24.109Z,2.78
2023-05-12T06:17:25.785Z,2.90
2023-05-12T06:19:27.341Z,2.55
2023-05-12T06:21:28.932Z,3.08
2023-05-12T06:23:30.707Z,2.47
2023-05-12T06:25:33.324Z,3.25
2023-05-12T06:27:34.963Z,2.65
2023-05-12T06:29:36.499Z,2.40
2023-05-12T06:31:38.094Z,2.85
2023-05-12T06:33:39.743Z,2.97
2023-05-12T06:35:41.276Z,2.80
2023-05-12T06:37:44.898Z,3.58
2023-05-12T06:39:46.384Z,3.10
2023-05-12T06:41:47.911Z,2.80
2023-05-12T06:43:49.438Z,3.20
2023-05-12T06:45:51.482Z,3.00
2023-05-12T06:47:53.133Z,2.70
2023-05-12T06:49:54.721Z,2.38
2023-05-12T06:51:56.489Z,2.90
2023-05-12T06:53:58.075Z,2.65
2023-05-12T06:55:59.596Z,2.20
2023-05-12T06:58:01.180Z,3.10
2023-05-12T07:00:03.520Z,2.80
2023-05-12T07:02:05.290Z,3.08
2023-05-12T07:04:07.984Z,2.53
2023-05-12T07:06:09.751Z,3.20
2023-05-12T07:08:11.299Z,2.70
2023-05-12T07:10:12.886Z,2.50
2023-05-12T07:12:14.462Z,2.53
2023-05-12T07:14:15.951Z,2.72
2023-05-12T07:16:19.383Z,2.20
2023-05-12T07:18:21.065Z,2.88
2023-05-12T07:20:22.870Z,2.78
2023-05-12T07:22:24.404Z,2.55
2023-05-12T07:24:26.085Z,2.60
2023-05-12T07:26:29.282Z,2.47
2023-05-12T07:28:32.469Z,2.30
2023-05-12T07:30:34.034Z,2.80
2023-05-12T07:32:35.584Z,2.70
2023-05-12T07:34:38.366Z,3.00
2023-05-12T07:36:39.848Z,2.38
2023-05-12T07:38:41.700Z,2.75
2023-05-12T07:40:44.641Z,2.92
2023-05-12T07:42:46.220Z,2.80
2023-05-12T07:44:48.002Z,2.50
2023-05-12T07:46:49.624Z,2.78
2023-05-12T07:48:51.151Z,3.05
2023-05-12T07:50:52.976Z,2.50
2023-05-12T07:52:54.610Z,2.75
2023-05-12T07:54:57.707Z,2.55
2023-05-12T07:56:59.238Z,2.55
2023-05-12T07:59:01.223Z,2.30
2023-05-12T08:01:06.012Z,2.28
2023-05-12T08:03:07.759Z,2.42
2023-05-12T08:05:10.720Z,2.28
2023-05-12T08:07:12.248Z,2.45
2023-05-12T08:09:13.824Z,2.40
2023-05-12T08:11:15.454Z,2.50
2023-05-12T08:13:17.081Z,2.42
2023-05-12T08:15:18.823Z,2.28
2023-05-12T08:17:20.594Z,2.42
2023-05-12T08:19:22.211Z,2.40
2023-05-12T08:21:24.077Z,2.35
2023-05-12T08:23:25.692Z,2.10
2023-05-12T08:25:30.301Z,2.03
2023-05-12T08:27:31.998Z,2.30
2023-05-12T08:29:33.622Z,2.30
2023-05-12T08:31:35.534Z,2.20
2023-05-12T08:33:37.309Z,2.28
2023-05-12T08:35:39.194Z,2.15
2023-05-12T08:37:40.833Z,1.90
2023-05-12T08:39:42.420Z,2.05
2023-05-12T08:41:51.467Z,2.28
2023-05-12T08:43:53.224Z,1.90
2023-05-12T08:45:57.724Z,2.20
2023-05-12T08:48:00.964Z,2.25
2023-05-12T08:50:04.426Z,2.03
2023-05-12T08:52:07.812Z,2.53
2023-05-12T08:54:10.602Z,1.85
2023-05-12T08:58:20.117Z,2.70
2023-05-12T09:00:28.718Z,1.92
2023-05-12T09:02:44.735Z,2.00
2023-05-12T09:04:54.977Z,2.08
2023-05-12T09:06:58.231Z,2.10
2023-05-12T09:09:00.364Z,2.03
2023-05-12T09:11:02.544Z,2.20
2023-05-12T09:13:19.642Z,2.25
2023-05-12T09:15:29.636Z,2.50
2023-05-12T09:17:31.205Z,3.08
2023-05-12T09:19:35.576Z,2.22
2023-05-12T09:21:37.500Z,2.40
2023-05-12T09:23:40.112Z,2.78
2023-05-12T09:25:41.950Z,2.80
2023-05-12T09:27:44.033Z,2.75
2023-05-12T09:29:59.297Z,2.55
2023-05-12T09:32:03.865Z,2.22
2023-05-12T09:34:10.129Z,2.30
2023-05-12T09:36:12.830Z,2.60
2023-05-12T09:38:14.777Z,2.47
2023-05-12T09:40:16.390Z,2.70
2023-05-12T09:42:18.221Z,2.22
2023-05-12T09:44:20.791Z,2.60
2023-05-12T09:46:24.685Z,2.97
2023-05-12T09:48:27.548Z,3.10
2023-05-12T09:50:40.835Z,2.90
2023-05-12T09:52:45.970Z,2.83
2023-05-12T09:54:47.798Z,2.30
2023-05-12T09:56:49.768Z,2.53
2023-05-12T09:58:51.315Z,2.17
2023-05-12T10:02:59.123Z,2.70
2023-05-12T10:05:06.246Z,2.45
2023-05-12T10:07:11.896Z,2.53
2023-05-12T10:09:20.705Z,2.58
2023-05-12T10:11:22.984Z,2.75
2023-05-12T10:13:24.600Z,2.78
2023-05-12T10:15:27.353Z,2.78
2023-05-12T10:17:29.630Z,2.42
2023-05-12T10:19:31.422Z,2.97
2023-05-12T10:21:33.595Z,3.10
2023-05-12T10:23:38.091Z,3.00
2023-05-12T10:25:42.444Z,3.28
2023-05-12T10:27:44.786Z,3.20
2023-05-12T10:29:48.169Z,2.85
2023-05-12T10:31:50.173Z,3.13
2023-05-12T10:33:59.589Z,2.88
2023-05-12T10:36:01.226Z,2.80
2023-05-12T10:38:10.518Z,3.30
2023-05-12T10:40:22.705Z,3.13
2023-05-12T10:42:25.790Z,3.42
2023-05-12T10:44:28.630Z,3.33
2023-05-12T10:46:30.812Z,3.10
2023-05-12T10:48:32.599Z,3.22
2023-05-12T10:50:34.515Z,3.38
2023-05-12T10:52:36.071Z,3.92
2023-05-12T10:54:41.121Z,2.83
2023-05-12T10:56:44.965Z,3.03
2023-05-12T10:59:13.605Z,3.78
2023-05-12T11:01:25.162Z,3.42
2023-05-12T11:03:27.517Z,3.15
2023-05-12T11:05:34.951Z,3.08
2023-05-12T11:07:37.578Z,3.58
2023-05-12T11:09:53.081Z,3.08
2023-05-12T11:12:00.519Z,3.53
2023-05-12T11:14:02.432Z,3.58
2023-05-12T11:16:04.354Z,2.67
2023-05-12T11:18:06.128Z,3.28
2023-05-12T11:20:09.901Z,3.00
2023-05-12T11:22:12.685Z,3.08
2023-05-12T11:24:14.639Z,2.67
2023-05-12T11:26:19.380Z,2.72
2023-05-12T11:28:21.071Z,2.75
2023-05-12T11:30:22.753Z,3.22
2023-05-12T11:32:24.306Z,2.65
2023-05-12T11:34:27.315Z,2.92
2023-05-12T11:36:28.815Z,2.50
2023-05-12T11:38:30.365Z,2.88
2023-05-12T11:40:31.889Z,2.58
2023-05-12T11:42:33.435Z,2.83
2023-05-12T11:44:35.623Z,2.70
2023-05-12T11:46:40.205Z,2.40
2023-05-12T11:48:41.803Z,2.88
2023-05-12T11:50:47.598Z,2.47
2023-05-12T11:52:49.886Z,2.60
2023-05-12T11:54:52.397Z,2.28
2023-05-12T11:56:55.377Z,2.13
2023-05-12T11:58:58.446Z,2.30
2023-05-12T12:01:10.612Z,2.38
2023-05-12T12:03:14.097Z,2.45
2023-05-12T12:05:19.655Z,2.20
2023-05-12T12:07:34.569Z,2.13
2023-05-12T12:09:40.871Z,2.25
2023-05-12T12:11:42.402Z,2.28
2023-05-12T12:16:30.517Z,2.17
2023-05-12T12:18:32.222Z,2.35
2023-05-12T12:20:33.855Z,2.22
2023-05-12T12:22:35.496Z,2.38
2023-05-12T12:24:37.030Z,2.10
2023-05-12T12:26:39.638Z,2.00
2023-05-12T12:28:41.285Z,2.10
2023-05-12T12:30:43.149Z,2.38
2023-05-12T12:32:46.149Z,2.22
2023-05-12T12:34:49.107Z,2.40
2023-05-12T12:36:51.779Z,2.28
2023-05-12T12:38:53.504Z,2.47
2023-05-12T12:40:55.064Z,2.53
2023-05-12T12:42:56.920Z,2.75
2023-05-12T12:44:58.472Z,2.45
2023-05-12T12:47:00.214Z,2.40
2023-05-12T12:49:01.789Z,2.10
2023-05-12T12:51:03.509Z,2.55
2023-05-12T12:53:05.258Z,2.70
2023-05-12T12:55:07.307Z,2.28
2023-05-12T12:57:08.832Z,2.47
2023-05-12T12:59:10.442Z,2.45
2023-05-12T13:01:12.069Z,2.88
2023-05-12T13:03:13.682Z,2.50
2023-05-12T13:05:16.331Z,2.47
2023-05-12T13:07:17.949Z,2.67
2023-05-12T13:09:20.218Z,2.40
2023-05-12T13:11:21.904Z,2.47
2023-05-12T13:13:24.533Z,2.85
2023-05-12T13:15:26.307Z,2.40
2023-05-12T13:17:28.467Z,2.53
2023-05-12T13:19:30.098Z,2.90
2023-05-12T13:21:31.599Z,3.03
2023-05-12T13:23:33.218Z,2.80
2023-05-12T13:25:34.765Z,2.63
2023-05-12T13:27:37.092Z,3.42
2023-05-12T13:29:39.728Z,2.80
2023-05-12T13:31:42.658Z,2.85
2023-05-12T13:33:44.227Z,2.83
2023-05-12T13:35:45.735Z,2.80
2023-05-12T13:37:47.581Z,3.00
2023-05-12T13:39:49.210Z,2.72
2023-05-12T13:41:51.236Z,2.50
2023-05-12T13:43:52.759Z,2.70
2023-05-12T13:45:54.356Z,3.15
2023-05-12T13:47:55.915Z,2.83
2023-05-12T13:49:57.546Z,2.70
2023-05-12T13:51:59.113Z,2.72
2023-05-12T13:54:00.669Z,3.03
2023-05-12T13:56:02.224Z,3.53
2023-05-12T13:58:04.025Z,3.42
2023-05-12T14:00:08.381Z,3.15
2023-05-12T14:02:11.957Z,3.58
2023-05-12T14:04:14.361Z,3.00
2023-05-12T14:06:15.888Z,3.30
2023-05-12T14:08:17.466Z,3.30
2023-05-12T14:10:19.140Z,3.50
2023-05-12T14:12:20.696Z,2.92
2023-05-12T14:14:22.191Z,2.88
2023-05-12T14:16:23.767Z,2.83
2023-05-12T14:18:26.072Z,2.50
2023-05-12T14:20:27.614Z,2.90
2023-05-12T14:22:29.101Z,2.80
2023-05-12T14:24:30.632Z,2.50
2023-05-12T14:26:32.466Z,2.17
2023-05-12T14:28:34.344Z,1.92
2023-05-12T14:30:37.370Z,1.95
2023-05-12T14:32:39.036Z,2.03
2023-05-12T14:34:40.758Z,2.30
2023-05-12T14:36:42.292Z,2.40
2023-05-12T14:38:43.844Z,2.58
2023-05-12T14:40:47.407Z,2.42
2023-05-12T14:42:48.997Z,2.35
2023-05-12T14:44:50.557Z,2.42
2023-05-12T14:46:52.092Z,2.28
2023-05-12T14:48:53.617Z,2.53
2023-05-12T14:50:56.630Z,2.72
2023-05-12T14:52:58.498Z,3.38
2023-05-12T14:54:59.995Z,3.15
2023-05-12T14:57:01.535Z,3.17
2023-05-12T14:59:04.161Z,3.20
2023-05-12T15:01:08.736Z,2.65
2023-05-12T15:03:11.603Z,3.05
2023-05-12T15:05:14.120Z,2.97
2023-05-12T15:07:15.625Z,2.60
2023-05-12T15:09:17.387Z,2.90
2023-05-12T15:11:18.936Z,2.45
2023-05-12T15:13:22.547Z,3.25
2023-05-12T15:15:24.169Z,3.13
2023-05-12T15:17:27.255Z,2.92
2023-05-12T15:19:28.846Z,3.05
2023-05-12T15:21:30.783Z,2.67
2023-05-12T15:23:32.404Z,2.92
2023-05-12T15:25:33.977Z,3.38
2023-05-12T15:27:35.549Z,2.70
2023-05-12T15:29:41.417Z,2.65
2023-05-12T15:31:42.988Z,2.63
2023-05-12T15:33:44.592Z,2.90
2023-05-12T15:35:46.119Z,2.50
2023-05-12T15:37:47.631Z,2.47
2023-05-12T15:39:51.080Z,2.40
2023-05-12T15:41:53.227Z,2.45
2023-05-12T15:43:54.747Z,2.30
2023-05-12T15:45:57.080Z,2.55
2023-05-12T15:47:59.004Z,2.40
2023-05-12T15:50:00.735Z,2.20
2023-05-12T15:52:02.551Z,2.53
2023-05-12T15:54:05.282Z,2.40
2023-05-12T15:56:08.834Z,2.20
2023-05-12T15:58:10.419Z,2.42
2023-05-12T16:00:12.847Z,2.28
2023-05-12T16:02:14.537Z,2.63
2023-05-12T16:04:16.238Z,2.38
2023-05-12T16:06:17.983Z,2.35
2023-05-12T16:08:20.402Z,2.40
2023-05-12T16:10:22.109Z,2.30
2023-05-12T16:12:23.653Z,2.25
2023-05-12T16:14:25.604Z,2.40
2023-05-12T16:16:27.250Z,2.38
2023-05-12T16:18:32.044Z,2.63
2023-05-12T16:20:33.763Z,2.30
2023-05-12T16:22:35.351Z,2.60
2023-05-12T16:24:37.404Z,2.45
2023-05-12T16:26:39.057Z,2.50
2023-05-12T16:28:40.679Z,2.20
2023-05-12T16:30:42.200Z,2.58
2023-05-12T16:32:44.305Z,2.47
2023-05-12T16:34:45.929Z,2.50
2023-05-12T16:36:47.497Z,2.70
2023-05-12T16:38:49.062Z,2.22
2023-05-12T16:40:50.854Z,3.03
2023-05-12T16:42:52.733Z,2.40
2023-05-12T16:44:57.312Z,2.50
2023-05-12T16:46:58.838Z,2.35
2023-05-12T16:49:00.364Z,2.45
2023-05-12T16:51:12.423Z,2.63
2023-05-12T16:53:13.944Z,2.70
2023-05-12T16:55:15.525Z,2.40
2023-05-12T16:57:17.120Z,2.20
2023-05-12T16:59:18.627Z,2.67
2023-05-12T17:01:20.199Z,2.72
2023-05-12T17:03:22.850Z,2.72
2023-05-12T17:05:24.690Z,2.65
2023-05-12T17:07:26.494Z,2.72
2023-05-12T17:09:28.082Z,2.70
2023-05-12T17:11:29.660Z,2.50
2023-05-12T17:13:31.264Z,2.53
2023-05-12T17:15:32.787Z,2.80
2023-05-12T17:17:34.625Z,2.53
2023-05-12T17:19:41.722Z,2.72
2023-05-12T17:21:43.478Z,7.03
2023-05-12T17:23:45.734Z,5.43
2023-05-12T17:25:47.331Z,8.32
2023-05-12T17:27:49.397Z,3.70
2023-05-12T17:29:50.939Z,37.22
2023-05-12T17:31:52.753Z,17.30
2023-05-12T17:33:54.453Z,15.38
2023-05-12T17:36:10.958Z,10.77
2023-05-12T17:38:14.234Z,6.00
2023-05-12T17:40:17.902Z,3.10
2023-05-12T17:42:19.565Z,2.70
2023-05-12T17:44:21.600Z,3.00
2023-05-12T17:46:23.315Z,2.65
2023-05-12T17:48:26.424Z,2.88
2023-05-12T17:50:28.001Z,3.00
2023-05-12T17:52:29.651Z,2.80
2023-05-12T17:54:31.578Z,2.60
2023-05-12T17:56:33.130Z,3.22
2023-05-12T17:58:34.735Z,2.60
2023-05-12T18:00:37.992Z,2.90
2023-05-12T18:02:41.892Z,2.95
2023-05-12T18:04:43.711Z,3.05
2023-05-12T18:06:50.025Z,3.08
2023-05-12T18:08:52.274Z,2.97
2023-05-12T18:10:53.851Z,2.97
2023-05-12T18:12:55.682Z,2.67
2023-05-12T18:14:57.240Z,2.70
2023-05-12T18:16:59.030Z,2.78
2023-05-12T18:19:00.954Z,2.70
2023-05-12T18:21:02.862Z,3.05
2023-05-12T18:23:04.616Z,2.80
2023-05-12T18:25:06.771Z,2.70
2023-05-12T18:27:08.337Z,2.95
2023-05-12T18:29:10.024Z,3.20
2023-05-12T18:33:16.252Z,2.88
2023-05-12T18:35:18.024Z,2.83
2023-05-12T18:37:20.111Z,2.60
2023-05-12T18:39:22.550Z,3.00
2023-05-12T18:41:24.107Z,3.00
2023-05-12T18:43:25.778Z,3.08
2023-05-12T18:45:27.416Z,3.00
2023-05-12T18:47:29.042Z,3.42
2023-05-12T18:49:30.744Z,2.97
2023-05-12T18:51:32.801Z,3.13
2023-05-12T18:53:34.318Z,3.05
2023-05-12T18:55:35.947Z,2.80
2023-05-12T18:57:37.451Z,2.80
2023-05-12T18:59:39.025Z,3.00
2023-05-12T19:01:40.634Z,3.17
2023-05-12T19:03:42.206Z,2.92
2023-05-12T19:05:46.355Z,3.42
2023-05-12T19:07:47.972Z,3.38
2023-05-12T19:09:49.605Z,3.22
2023-05-12T19:11:51.366Z,3.92
2023-05-12T19:13:52.991Z,3.47
2023-05-12T19:15:54.550Z,3.47
2023-05-12T19:17:56.255Z,2.97
2023-05-12T19:19:57.834Z,3.28
2023-05-12T19:21:59.584Z,3.60
2023-05-12T19:24:01.453Z,3.17
2023-05-12T19:26:03.099Z,3.38
2023-05-12T19:28:04.912Z,3.20
2023-05-12T19:30:07.168Z,3.92
2023-05-12T19:32:09.040Z,3.35
2023-05-12T19:34:10.825Z,3.63
2023-05-12T19:36:12.417Z,3.45
2023-05-12T19:38:14.256Z,3.25
2023-05-12T19:40:15.835Z,3.60
2023-05-12T19:42:17.389Z,2.88
2023-05-12T19:44:19.102Z,3.30
2023-05-12T19:46:21.016Z,3.15
2023-05-12T19:48:22.606Z,3.15
2023-05-12T19:50:24.138Z,3.38
2023-05-12T19:52:25.744Z,3.90
2023-05-12T19:54:27.406Z,3.58
2023-05-12T19:56:29.624Z,3.63
2023-05-12T19:58:31.152Z,3.70
2023-05-12T20:00:32.746Z,3.72
2023-05-12T20:02:34.345Z,3.88
2023-05-12T20:04:35.901Z,3.95
2023-05-12T20:06:37.536Z,3.88
2023-05-12T20:08:39.060Z,3.72
2023-05-12T20:10:40.598Z,3.70
2023-05-12T20:12:42.200Z,4.07
2023-05-12T20:14:43.763Z,3.95
2023-05-12T20:16:45.399Z,3.88
2023-05-12T20:18:47.029Z,3.63
2023-05-12T20:20:48.900Z,4.05
2023-05-12T20:22:50.445Z,3.70
2023-05-12T20:24:52.035Z,4.00
2023-05-12T20:26:54.073Z,4.70
2023-05-12T20:28:55.592Z,4.05
2023-05-12T20:30:57.222Z,3.72
2023-05-12T20:32:58.822Z,3.70
2023-05-12T20:35:00.419Z,3.90
2023-05-12T20:37:02.042Z,4.30
2023-05-12T20:39:07.093Z,3.97
2023-05-12T20:41:09.133Z,4.10
2023-05-12T20:43:10.814Z,3.85
2023-05-12T20:45:13.462Z,3.70
2023-05-12T20:47:15.063Z,3.95
2023-05-12T20:49:16.722Z,3.67
2023-05-12T20:51:18.298Z,4.07
2023-05-12T20:53:19.888Z,4.00
2023-05-12T20:55:21.542Z,3.95
2023-05-12T20:57:23.318Z,3.65
2023-05-12T20:59:24.888Z,3.90
2023-05-12T21:01:26.481Z,4.25
2023-05-12T21:03:28.192Z,3.88
2023-05-12T21:05:30.194Z,4.63
2023-05-12T21:07:32.084Z,4.47
2023-05-12T21:09:33.736Z,4.05
2023-05-12T21:11:35.341Z,4.45
2023-05-12T21:13:36.947Z,4.80
2023-05-12T21:15:38.454Z,4.38
2023-05-12T21:17:40.965Z,4.43
2023-05-12T21:19:44.002Z,4.40
2023-05-12T21:21:45.734Z,4.90
2023-05-12T21:23:47.309Z,5.28
2023-05-12T21:25:49.173Z,4.90
2023-05-12T21:27:51.825Z,5.28
2023-05-12T21:29:53.318Z,4.93
2023-05-12T21:31:54.863Z,5.05
2023-05-12T21:33:56.453Z,4.90
2023-05-12T21:35:58.645Z,4.82
2023-05-12T21:38:00.225Z,6.07
2023-05-12T21:40:02.119Z,5.20
2023-05-12T21:42:03.932Z,5.53
2023-05-12T21:44:10.998Z,5.38
2023-05-12T21:46:12.825Z,5.22
2023-05-12T21:48:15.108Z,5.00
2023-05-12T21:50:17.757Z,5.22
2023-05-12T21:52:19.334Z,5.20
2023-05-12T21:54:20.962Z,7.65
2023-05-12T21:56:23.059Z,6.10
2023-05-12T21:58:24.697Z,5.38
2023-05-12T22:00:26.314Z,5.47
2023-05-12T22:02:27.838Z,6.18
2023-05-12T22:04:29.365Z,5.28
2023-05-12T22:06:31.170Z,6.18
2023-05-12T22:08:32.784Z,5.32
2023-05-12T22:10:34.323Z,5.25
2023-05-12T22:12:35.934Z,5.25
2023-05-12T22:14:37.828Z,5.70
2023-05-12T22:16:42.156Z,6.35
2023-05-12T22:18:44.558Z,5.68
2023-05-12T22:20:46.462Z,6.68
2023-05-12T22:22:48.013Z,6.63
2023-05-12T22:24:49.641Z,6.38
2023-05-12T22:26:51.204Z,5.72
2023-05-12T22:28:52.746Z,6.05
2023-05-12T22:30:54.277Z,5.68
2023-05-12T22:32:56.314Z,5.40
2023-05-12T22:34:57.934Z,5.05
2023-05-12T22:36:59.524Z,4.65
2023-05-12T22:39:01.134Z,5.13
2023-05-12T22:41:02.655Z,5.55
2023-05-12T22:43:04.316Z,5.20
2023-05-12T22:45:06.967Z,5.47
2023-05-12T22:47:08.773Z,5.00
2023-05-12T22:49:10.379Z,5.43
2023-05-12T22:51:11.929Z,5.38
2023-05-12T22:53:13.982Z,5.20
2023-05-12T22:55:15.530Z,5.25
2023-05-12T22:57:17.078Z,5.82
2023-05-12T22:59:18.616Z,5.18
2023-05-12T23:01:20.200Z,5.55
2023-05-12T23:03:21.787Z,5.30
2023-05-12T23:05:23.439Z,5.47
2023-05-12T23:07:24.949Z,5.38
2023-05-12T23:09:26.469Z,5.32
2023-05-12T23:11:28.000Z,5.13
2023-05-12T23:13:29.826Z,4.82
2023-05-12T23:15:31.421Z,5.07
2023-05-12T23:17:33.277Z,4.90
2023-05-12T23:19:35.378Z,5.10
2023-05-12T23:21:36.913Z,5.43
2023-05-12T23:23:38.438Z,4.85
2023-05-12T23:25:41.814Z,5.93
2023-05-12T23:27:43.349Z,5.45
2023-05-12T23:29:44.931Z,5.45
2023-05-12T23:31:46.537Z,5.55
2023-05-12T23:33:48.190Z,5.47
2023-05-12T23:35:49.809Z,5.22
2023-05-12T23:37:51.418Z,5.05
2023-05-12T23:39:52.948Z,5.25
2023-05-12T23:41:54.454Z,5.53
2023-05-12T23:43:56.049Z,4.88
2023-05-12T23:45:58.225Z,5.63
2023-05-12T23:48:00.511Z,5.78
2023-05-12T23:50:02.166Z,5.35
2023-05-12T23:52:03.906Z,6.03
2023-05-12T23:54:05.672Z,5.55
2023-05-12T23:56:07.844Z,6.63
2023-05-12T23:58:10.760Z,6.28
